createdAt,value
2018-12-08T00:00:37.310Z,99758.44
2018-12-08T00:01:44.095Z,99756.36
2018-12-08T00:02:49.667Z,99756.81
2018-12-08T00:03:55.096Z,99752.58
2018-12-08T00:05:00.551Z,99757.64
2018-12-08T00:06:06.091Z,99760.15
2018-12-08T00:07:11.429Z,99767.66
2018-12-08T00:08:16.811Z,99762.48
2018-12-08T00:09:22.456Z,99766.25
2018-12-08T00:10:28.018Z,99768.76
2018-12-08T00:11:33.584Z,99770.89
2018-12-08T00:12:39.119Z,99766.22
2018-12-08T00:13:44.952Z,99761.95
2018-12-08T00:14:50.450Z,99773.34
2018-12-08T00:15:55.924Z,99775.41
2018-12-08T00:17:01.847Z,99774.52
2018-12-08T00:18:07.327Z,99769.80
2018-12-08T00:19:12.764Z,99763.34
2018-12-08T00:20:18.182Z,99768.38
2018-12-08T00:21:23.655Z,99764.55
2018-12-08T00:22:29.100Z,99755.63
2018-12-08T00:23:34.523Z,99771.30
2018-12-08T00:24:40.262Z,99764.87
2018-12-08T00:25:45.930Z,99765.70
2018-12-08T00:26:51.372Z,99773.24
2018-12-08T00:27:56.887Z,99780.81
2018-12-08T00:29:02.331Z,99782.12
2018-12-08T00:31:23.450Z,99775.75
2018-12-08T00:32:29.095Z,99781.32
2018-12-08T00:33:34.863Z,99783.06
2018-12-08T00:34:40.276Z,99783.09
2018-12-08T00:35:45.716Z,99783.09
2018-12-08T00:36:51.132Z,99782.27
2018-12-08T00:37:56.602Z,99779.73
2018-12-08T00:39:02.339Z,99780.14
2018-12-08T00:40:07.754Z,99786.05
2018-12-08T00:41:13.230Z,99777.95
2018-12-08T00:42:18.663Z,99784.34
2018-12-08T00:43:24.143Z,99779.25
2018-12-08T00:44:29.630Z,99779.28
2018-12-08T00:45:35.290Z,99787.83
2018-12-08T00:46:40.831Z,99785.41
2018-12-08T00:47:46.388Z,99782.06
2018-12-08T00:48:51.890Z,99771.92
2018-12-08T00:49:57.389Z,99776.18
2018-12-08T00:51:02.902Z,99773.67
2018-12-08T00:52:08.531Z,99761.39
2018-12-08T00:53:13.941Z,99758.88
2018-12-08T00:54:19.378Z,99763.20
2018-12-08T00:55:24.884Z,99758.97
2018-12-08T00:56:30.462Z,99759.06
2018-12-08T00:57:35.992Z,99754.45
2018-12-08T00:58:41.499Z,99760.33
2018-12-08T00:59:47.002Z,99765.00
2018-12-08T01:00:52.653Z,99766.22
2018-12-08T01:01:58.126Z,99767.88
2018-12-08T01:03:03.702Z,99763.20
2018-12-08T01:04:09.302Z,99760.69
2018-12-08T01:05:14.811Z,99761.54
2018-12-08T01:06:20.435Z,99761.54
2018-12-08T01:07:26.144Z,99746.28
2018-12-08T01:08:31.699Z,99752.27
2018-12-08T01:09:37.202Z,99743.84
2018-12-08T01:10:42.731Z,99747.65
2018-12-08T01:11:48.105Z,99751.91
2018-12-08T01:12:53.535Z,99754.39
2018-12-08T01:13:58.966Z,99758.70
2018-12-08T01:15:04.695Z,99755.31
2018-12-08T01:16:10.414Z,99760.39
2018-12-08T01:17:15.815Z,99756.45
2018-12-08T01:18:21.382Z,99755.13
2018-12-08T01:19:26.894Z,99755.01
2018-12-08T01:20:32.434Z,99747.77
2018-12-08T01:21:38.064Z,99741.82
2018-12-08T01:22:43.766Z,99751.13
2018-12-08T01:23:49.335Z,99735.49
2018-12-08T01:24:54.938Z,99749.00
2018-12-08T01:26:00.384Z,99739.66
2018-12-08T01:27:05.997Z,99747.29
2018-12-08T01:28:11.594Z,99738.86
2018-12-08T01:29:17.112Z,99736.29
2018-12-08T01:30:22.770Z,99737.53
2018-12-08T01:31:28.207Z,99746.78
2018-12-08T01:32:33.751Z,99748.47
2018-12-08T01:33:39.170Z,99751.02
2018-12-08T01:34:44.843Z,99757.75
2018-12-08T01:35:50.239Z,99750.19
2018-12-08T01:36:55.607Z,99756.48
2018-12-08T01:38:01.092Z,99758.20
2018-12-08T01:39:08.481Z,99755.27
2018-12-08T01:40:14.028Z,99762.04
2018-12-08T01:41:19.555Z,99761.22
2018-12-08T01:42:25.019Z,99767.92
2018-12-08T01:43:30.519Z,99767.10
2018-12-08T01:44:35.895Z,99771.39
2018-12-08T01:45:41.332Z,99775.67
2018-12-08T01:46:46.759Z,99774.44
2018-12-08T01:47:52.200Z,99774.91
2018-12-08T01:48:57.570Z,99774.49
2018-12-08T01:50:03.053Z,99774.47
2018-12-08T01:51:08.482Z,99776.66
2018-12-08T01:52:14.130Z,99776.20
2018-12-08T01:53:19.578Z,99771.95
2018-12-08T01:54:24.987Z,99774.84
2018-12-08T01:55:30.588Z,99772.30
2018-12-08T01:56:36.012Z,99788.42
2018-12-08T01:57:41.505Z,99774.44
2018-12-08T01:58:46.940Z,99772.69
2018-12-08T01:59:52.367Z,99774.84
2018-12-08T02:00:57.922Z,99776.95
2018-12-08T02:02:03.472Z,99771.39
2018-12-08T02:03:08.955Z,99768.02
2018-12-08T02:04:14.355Z,99767.61
2018-12-08T02:05:19.846Z,99761.69
2018-12-08T02:06:25.282Z,99759.97
2018-12-08T02:07:30.795Z,99754.86
2018-12-08T02:08:36.266Z,99755.30
2018-12-08T02:09:41.843Z,99752.38
2018-12-08T02:10:47.406Z,99744.84
2018-12-08T02:11:52.823Z,99746.94
2018-12-08T02:12:58.372Z,99751.10
2018-12-08T02:14:03.943Z,99751.96
2018-12-08T02:15:09.442Z,99745.19
2018-12-08T02:16:14.891Z,99748.56
2018-12-08T02:17:20.340Z,99742.20
2018-12-08T02:18:25.724Z,99748.53
2018-12-08T02:19:31.191Z,99736.29
2018-12-08T02:20:36.734Z,99738.36
2018-12-08T02:21:42.329Z,99735.81
2018-12-08T02:22:47.775Z,99728.19
2018-12-08T02:23:53.275Z,99736.23
2018-12-08T02:24:58.904Z,99735.75
2018-12-08T02:26:04.503Z,99736.61
2018-12-08T02:27:09.947Z,99737.41
2018-12-08T02:28:15.401Z,99728.09
2018-12-08T02:29:20.831Z,99739.09
2018-12-08T02:30:26.377Z,99721.64
2018-12-08T02:31:31.811Z,99722.53
2018-12-08T02:32:37.383Z,99728.44
2018-12-08T02:33:42.860Z,99730.95
2018-12-08T02:34:48.272Z,99728.86
2018-12-08T02:35:53.690Z,99725.80
2018-12-08T02:36:59.160Z,99718.52
2018-12-08T02:38:04.674Z,99725.67
2018-12-08T02:39:10.103Z,99727.36
2018-12-08T02:40:15.598Z,99720.56
2018-12-08T02:41:21.194Z,99717.54
2018-12-08T02:42:26.603Z,99722.17
2018-12-08T02:43:32.197Z,99723.01
2018-12-08T02:44:37.703Z,99718.30
2018-12-08T02:45:43.211Z,99710.67
2018-12-08T02:46:48.634Z,99714.48
2018-12-08T02:47:54.043Z,99716.96
2018-12-08T02:48:59.456Z,99708.50
2018-12-08T02:50:05.719Z,99713.15
2018-12-08T02:51:11.182Z,99705.48
2018-12-08T02:52:16.668Z,99713.11
2018-12-08T02:53:22.112Z,99709.27
2018-12-08T02:54:28.151Z,99707.52
2018-12-08T02:55:33.594Z,99711.74
2018-12-08T02:56:39.238Z,99699.47
2018-12-08T02:57:44.714Z,99710.06
2018-12-08T02:58:50.139Z,99700.30
2018-12-08T02:59:55.724Z,99707.52
2018-12-08T03:01:01.191Z,99699.88
2018-12-08T03:02:06.701Z,99705.80
2018-12-08T03:03:12.332Z,99696.89
2018-12-08T03:04:17.783Z,99689.56
2018-12-08T03:05:23.304Z,99701.88
2018-12-08T03:06:28.803Z,99703.53
2018-12-08T03:07:34.351Z,99683.59
2018-12-08T03:08:39.755Z,99694.59
2018-12-08T03:09:45.314Z,99688.27
2018-12-08T03:10:50.830Z,99694.18
2018-12-08T03:11:56.251Z,99691.64
2018-12-08T03:13:01.651Z,99695.93
2018-12-08T03:14:07.283Z,99688.70
2018-12-08T03:15:12.696Z,99684.92
2018-12-08T03:16:18.098Z,99687.02
2018-12-08T03:17:23.465Z,99684.52
2018-12-08T03:18:28.842Z,99684.92
2018-12-08T03:19:34.338Z,99683.24
2018-12-08T03:20:39.833Z,99696.86
2018-12-08T03:21:45.185Z,99683.69
2018-12-08T03:22:50.647Z,99684.48
2018-12-08T03:23:56.035Z,99686.20
2018-12-08T03:25:01.569Z,99685.34
2018-12-08T03:26:06.950Z,99682.80
2018-12-08T03:27:12.325Z,99678.09
2018-12-08T03:28:17.740Z,99678.53
2018-12-08T03:29:23.144Z,99684.00
2018-12-08T03:30:28.579Z,99678.91
2018-12-08T03:31:33.979Z,99681.04
2018-12-08T03:32:39.368Z,99674.68
2018-12-08T03:33:44.910Z,99678.88
2018-12-08T03:34:50.266Z,99673.30
2018-12-08T03:35:55.719Z,99666.63
2018-12-08T03:37:01.151Z,99667.42
2018-12-08T03:38:06.573Z,99661.48
2018-12-08T03:39:12.040Z,99669.97
2018-12-08T03:40:17.417Z,99654.29
2018-12-08T03:41:22.811Z,99655.49
2018-12-08T03:42:28.450Z,99662.72
2018-12-08T03:43:33.828Z,99650.84
2018-12-08T03:44:39.277Z,99650.51
2018-12-08T03:45:44.690Z,99648.79
2018-12-08T03:46:50.280Z,99655.97
2018-12-08T03:47:55.659Z,99643.70
2018-12-08T03:49:01.050Z,99643.28
2018-12-08T03:50:07.971Z,99648.00
2018-12-08T03:51:13.343Z,99652.27
2018-12-08T03:52:18.769Z,99650.09
2018-12-08T03:53:24.173Z,99659.38
2018-12-08T03:54:29.619Z,99651.67
2018-12-08T03:55:34.986Z,99651.33
2018-12-08T03:56:40.384Z,99652.67
2018-12-08T03:57:45.848Z,99645.08
2018-12-08T03:58:51.490Z,99642.63
2018-12-08T03:59:56.850Z,99644.28
2018-12-08T04:01:02.250Z,99641.33
2018-12-08T04:02:07.653Z,99643.42
2018-12-08T04:03:13.248Z,99644.70
2018-12-08T04:04:18.851Z,99641.39
2018-12-08T04:05:24.263Z,99645.69
2018-12-08T04:06:30.100Z,99634.63
2018-12-08T04:07:35.532Z,99641.42
2018-12-08T04:08:41.083Z,99633.38
2018-12-08T04:09:46.644Z,99640.61
2018-12-08T04:10:52.091Z,99639.81
2018-12-08T04:11:57.493Z,99633.11
2018-12-08T04:13:02.904Z,99639.12
2018-12-08T04:14:08.428Z,99635.75
2018-12-08T04:15:14.179Z,99636.55
2018-12-08T04:16:19.818Z,99632.63
2018-12-08T04:17:25.275Z,99630.05
2018-12-08T04:18:30.725Z,99633.45
2018-12-08T04:19:36.231Z,99625.38
2018-12-08T04:20:41.615Z,99628.70
2018-12-08T04:21:47.018Z,99626.13
2018-12-08T04:22:52.527Z,99624.72
2018-12-08T04:23:57.929Z,99624.69
2018-12-08T04:25:03.358Z,99624.20
2018-12-08T04:26:08.795Z,99616.16
2018-12-08T04:27:14.200Z,99622.89
2018-12-08T04:28:19.752Z,99623.30
2018-12-08T04:29:25.203Z,99607.94
2018-12-08T04:30:30.628Z,99603.66
2018-12-08T04:31:36.019Z,99612.47
2018-12-08T04:32:41.390Z,99602.73
2018-12-08T04:33:47.007Z,99610.33
2018-12-08T04:34:52.446Z,99608.58
2018-12-08T04:35:57.874Z,99614.42
2018-12-08T04:37:03.336Z,99609.78
2018-12-08T04:38:08.809Z,99611.02
2018-12-08T04:39:14.225Z,99620.27
2018-12-08T04:40:19.756Z,99613.03
2018-12-08T04:41:25.185Z,99609.52
2018-12-08T04:42:30.564Z,99616.37
2018-12-08T04:43:36.099Z,99608.62
2018-12-08T04:44:41.610Z,99603.98
2018-12-08T04:45:47.282Z,99608.62
2018-12-08T04:46:52.820Z,99607.80
2018-12-08T04:47:58.524Z,99606.15
2018-12-08T04:49:03.995Z,99608.70
2018-12-08T04:50:09.647Z,99596.75
2018-12-08T04:51:15.167Z,99602.22
2018-12-08T04:52:20.642Z,99597.62
2018-12-08T04:53:26.327Z,99601.88
2018-12-08T04:54:31.835Z,99597.62
2018-12-08T04:55:37.331Z,99602.22
2018-12-08T04:56:42.959Z,99601.73
2018-12-08T04:57:48.496Z,99607.69
2018-12-08T04:58:53.850Z,99599.16
2018-12-08T04:59:59.372Z,99597.87
2018-12-08T05:01:04.896Z,99599.56
2018-12-08T05:02:10.366Z,99594.02
2018-12-08T05:03:15.834Z,99595.22
2018-12-08T05:04:21.364Z,99598.55
2018-12-08T05:05:26.808Z,99602.34
2018-12-08T05:06:32.273Z,99598.89
2018-12-08T05:07:37.831Z,99597.20
2018-12-08T05:08:43.437Z,99591.30
2018-12-08T05:09:48.857Z,99585.67
2018-12-08T05:10:54.577Z,99589.45
2018-12-08T05:12:00.113Z,99591.96
2018-12-08T05:13:05.618Z,99589.83
2018-12-08T05:14:11.076Z,99596.16
2018-12-08T05:15:16.518Z,99587.66
2018-12-08T05:16:22.219Z,99590.20
2018-12-08T05:17:27.602Z,99587.24
2018-12-08T05:18:33.160Z,99584.25
2018-12-08T05:19:38.938Z,99586.71
2018-12-08T05:20:44.431Z,99585.78
2018-12-08T05:21:49.967Z,99584.09
2018-12-08T05:22:55.531Z,99578.96
2018-12-08T05:24:01.020Z,99590.83
2018-12-08T05:25:07.126Z,99579.70
2018-12-08T05:26:12.627Z,99572.47
2018-12-08T05:27:18.333Z,99566.93
2018-12-08T05:28:23.816Z,99568.61
2018-12-08T05:29:29.405Z,99568.61
2018-12-08T05:30:35.304Z,99573.26
2018-12-08T05:31:40.858Z,99566.48
2018-12-08T05:32:46.325Z,99559.73
2018-12-08T05:33:51.836Z,99567.37
2018-12-08T05:34:57.403Z,99570.30
2018-12-08T05:36:02.787Z,99570.71
2018-12-08T05:37:08.234Z,99563.11
2018-12-08T05:38:13.688Z,99560.27
2018-12-08T05:39:19.120Z,99561.17
2018-12-08T05:40:24.602Z,99563.72
2018-12-08T05:41:30.059Z,99563.68
2018-12-08T05:42:35.491Z,99571.36
2018-12-08T05:43:40.998Z,99568.89
2018-12-08T05:44:46.419Z,99559.23
2018-12-08T05:45:52.051Z,99565.22
2018-12-08T05:46:57.647Z,99553.80
2018-12-08T05:48:03.135Z,99557.29
2018-12-08T05:49:08.679Z,99563.39
2018-12-08T05:50:14.137Z,99566.43
2018-12-08T05:51:19.756Z,99552.47
2018-12-08T05:52:25.202Z,99552.09
2018-12-08T05:53:30.676Z,99548.34
2018-12-08T05:54:36.274Z,99544.53
2018-12-08T05:55:41.659Z,99544.53
2018-12-08T05:56:47.079Z,99550.48
2018-12-08T05:57:52.534Z,99537.34
2018-12-08T05:58:58.167Z,99538.63
2018-12-08T06:00:04.145Z,99541.98
2018-12-08T06:01:10.923Z,99539.37
2018-12-08T06:02:16.456Z,99542.32
2018-12-08T06:03:21.903Z,99535.51
2018-12-08T06:04:27.491Z,99538.80
2018-12-08T06:05:33.248Z,99534.94
2018-12-08T06:06:38.767Z,99538.68
2018-12-08T06:07:44.231Z,99543.36
2018-12-08T06:08:49.813Z,99547.06
2018-12-08T06:09:55.543Z,99544.03
2018-12-08T06:11:00.966Z,99527.85
2018-12-08T06:12:06.947Z,99534.59
2018-12-08T06:13:12.381Z,99522.23
2018-12-08T06:14:18.311Z,99530.32
2018-12-08T06:15:23.779Z,99532.83
2018-12-08T06:16:29.143Z,99528.52
2018-12-08T06:17:35.344Z,99525.97
2018-12-08T06:18:40.751Z,99530.53
2018-12-08T06:19:46.227Z,99529.06
2018-12-08T06:20:51.710Z,99528.98
2018-12-08T06:21:57.203Z,99525.52
2018-12-08T06:23:02.679Z,99529.23
2018-12-08T06:24:08.772Z,99518.17
2018-12-08T06:25:23.542Z,99524.91
2018-12-08T06:26:29.062Z,99521.17
2018-12-08T06:27:55.583Z,99527.13
2018-12-08T06:29:01.271Z,99509.83
2018-12-08T06:30:08.578Z,99507.73
2018-12-08T06:31:14.027Z,99495.38
2018-12-08T06:32:19.449Z,99532.27
2018-12-08T06:33:24.927Z,99530.98
2018-12-08T06:34:30.491Z,99528.53
2018-12-08T06:35:36.035Z,99524.38
2018-12-08T06:36:41.483Z,99511.23
2018-12-08T06:37:46.939Z,99519.32
2018-12-08T06:38:52.309Z,99513.85
2018-12-08T06:39:57.755Z,99512.50
2018-12-08T06:41:03.122Z,99515.95
2018-12-08T06:42:08.502Z,99517.67
2018-12-08T06:43:14.008Z,99524.41
2018-12-08T06:44:19.438Z,99519.36
2018-12-08T06:45:34.623Z,99512.13
2018-12-08T06:46:41.895Z,99511.72
2018-12-08T06:49:40.192Z,99516.73
2018-12-08T06:50:47.652Z,99503.59
2018-12-08T06:51:55.640Z,99498.50
2018-12-08T06:53:01.747Z,99508.27
2018-12-08T06:54:07.137Z,99507.41
2018-12-08T06:55:12.564Z,99513.32
2018-12-08T06:56:18.265Z,99516.28
2018-12-08T06:57:24.059Z,99512.87
2018-12-08T06:58:29.726Z,99520.02
2018-12-08T06:59:35.128Z,99511.55
2018-12-08T07:00:40.717Z,99506.05
2018-12-08T07:01:46.231Z,99510.81
2018-12-08T07:02:52.023Z,99504.48
2018-12-08T07:03:57.598Z,99511.30
2018-12-08T07:05:03.391Z,99499.35
2018-12-08T07:06:09.036Z,99487.48
2018-12-08T07:07:16.484Z,99491.71
2018-12-08T07:08:22.454Z,99483.58
2018-12-08T07:09:28.214Z,99489.54
2018-12-08T07:10:33.812Z,99492.87
2018-12-08T07:11:39.407Z,99484.36
2018-12-08T07:12:47.231Z,99478.40
2018-12-08T07:13:52.743Z,99479.17
2018-12-08T07:14:58.223Z,99479.51
2018-12-08T07:16:03.857Z,99473.43
2018-12-08T07:17:09.312Z,99462.04
2018-12-08T07:18:14.763Z,99478.11
2018-12-08T07:19:20.205Z,99481.88
2018-12-08T07:20:25.590Z,99484.31
2018-12-08T07:21:31.028Z,99484.31
2018-12-08T07:22:36.484Z,99486.44
2018-12-08T07:23:41.912Z,99485.17
2018-12-08T07:24:47.380Z,99485.09
2018-12-08T07:25:52.779Z,99484.27
2018-12-08T07:26:58.270Z,99489.28
2018-12-08T07:28:03.748Z,99487.50
2018-12-08T07:29:09.360Z,99479.00
2018-12-08T07:30:14.974Z,99488.70
2018-12-08T07:31:20.648Z,99480.97
2018-12-08T07:32:26.088Z,99491.98
2018-12-08T07:33:31.783Z,99496.67
2018-12-08T07:34:37.303Z,99494.12
2018-12-08T07:35:42.663Z,99481.78
2018-12-08T07:36:48.266Z,99492.35
2018-12-08T07:37:53.675Z,99501.67
2018-12-08T07:38:59.152Z,99501.72
2018-12-08T07:40:06.604Z,99505.92
2018-12-08T07:41:12.047Z,99500.94
2018-12-08T07:42:17.529Z,99494.98
2018-12-08T07:43:23.007Z,99487.34
2018-12-08T07:44:28.454Z,99487.80
2018-12-08T07:45:33.915Z,99485.24
2018-12-08T07:46:39.524Z,99491.24
2018-12-08T07:47:44.900Z,99490.75
2018-12-08T07:48:50.318Z,99486.97
2018-12-08T07:49:55.777Z,99495.06
2018-12-08T07:51:01.199Z,99490.84
2018-12-08T07:52:06.823Z,99492.11
2018-12-08T07:53:12.412Z,99495.56
2018-12-08T07:54:17.866Z,99493.88
2018-12-08T07:55:23.491Z,99497.30
2018-12-08T07:56:29.138Z,99500.38
2018-12-08T07:57:34.798Z,99497.83
2018-12-08T07:58:40.286Z,99503.46
2018-12-08T07:59:45.815Z,99503.09
2018-12-08T08:00:51.302Z,99501.81
2018-12-08T08:01:56.840Z,99500.58
2018-12-08T08:03:02.242Z,99510.73
2018-12-08T08:04:07.692Z,99498.81
2018-12-08T08:05:13.199Z,99503.54
2018-12-08T08:06:18.637Z,99497.55
2018-12-08T08:07:24.094Z,99501.41
2018-12-08T08:08:29.526Z,99488.25
2018-12-08T08:09:35.012Z,99488.25
2018-12-08T08:10:40.595Z,99492.08
2018-12-08T08:11:46.130Z,99484.77
2018-12-08T08:12:52.314Z,99481.77
2018-12-08T08:13:57.810Z,99483.00
2018-12-08T08:15:04.181Z,99486.81
2018-12-08T08:16:09.619Z,99477.52
2018-12-08T08:17:15.264Z,99478.34
2018-12-08T08:18:22.135Z,99480.00
2018-12-08T08:19:27.596Z,99478.67
2018-12-08T08:20:33.049Z,99482.50
2018-12-08T08:21:38.454Z,99479.95
2018-12-08T08:22:44.404Z,99477.41
2018-12-08T08:23:50.505Z,99482.91
2018-12-08T08:24:56.048Z,99476.53
2018-12-08T08:26:01.519Z,99479.53
2018-12-08T08:27:07.004Z,99482.45
2018-12-08T08:28:12.467Z,99478.18
2018-12-08T08:29:17.946Z,99476.53
2018-12-08T08:30:23.624Z,99483.36
2018-12-08T08:31:29.127Z,99477.41
2018-12-08T08:32:34.562Z,99472.84
2018-12-08T08:33:40.314Z,99466.97
2018-12-08T08:34:45.910Z,99472.11
2018-12-08T08:35:51.358Z,99471.78
2018-12-08T08:36:56.759Z,99459.87
2018-12-08T08:38:02.102Z,99459.00
2018-12-08T08:39:09.516Z,99453.13
2018-12-08T08:40:15.127Z,99448.03
2018-12-08T08:41:20.682Z,99453.13
2018-12-08T08:42:26.139Z,99453.13
2018-12-08T08:43:31.654Z,99463.73
2018-12-08T08:44:37.316Z,99453.13
2018-12-08T08:45:42.834Z,99453.05
2018-12-08T08:46:48.315Z,99450.58
2018-12-08T08:47:53.704Z,99447.95
2018-12-08T08:48:59.262Z,99455.27
2018-12-08T08:50:06.658Z,99445.48
2018-12-08T08:51:12.143Z,99445.08
2018-12-08T08:52:17.631Z,99437.88
2018-12-08T08:53:23.216Z,99437.02
2018-12-08T08:54:28.759Z,99431.94
2018-12-08T08:55:34.336Z,99428.02
2018-12-08T08:56:40.016Z,99428.02
2018-12-08T08:57:45.551Z,99429.70
2018-12-08T08:58:51.031Z,99436.44
2018-12-08T08:59:56.498Z,99443.17
2018-12-08T09:01:02.049Z,99445.72
2018-12-08T09:02:07.602Z,99444.45
2018-12-08T09:03:13.069Z,99435.03
2018-12-08T09:04:18.462Z,99439.19
2018-12-08T09:05:23.958Z,99444.23
2018-12-08T09:06:29.555Z,99436.95
2018-12-08T09:07:34.987Z,99449.61
2018-12-08T09:08:40.473Z,99447.47
2018-12-08T09:09:45.977Z,99447.56
2018-12-08T09:10:51.537Z,99449.78
2018-12-08T09:11:57.085Z,99448.88
2018-12-08T09:13:02.657Z,99445.47
2018-12-08T09:14:13.176Z,99442.47
2018-12-08T09:15:15.643Z,99446.41
2018-12-08T09:16:21.269Z,99434.87
2018-12-08T09:17:26.708Z,99434.09
2018-12-08T09:18:32.278Z,99439.96
2018-12-08T09:19:37.626Z,99432.23
2018-12-08T09:20:43.060Z,99439.78
2018-12-08T09:21:48.727Z,99437.97
2018-12-08T09:22:54.082Z,99434.14
2018-12-08T09:23:59.456Z,99439.56
2018-12-08T09:25:05.459Z,99441.30
2018-12-08T09:26:11.118Z,99449.31
2018-12-08T09:27:16.543Z,99435.79
2018-12-08T09:28:22.107Z,99431.59
2018-12-08T09:29:27.574Z,99432.09
2018-12-08T09:30:33.070Z,99438.47
2018-12-08T09:31:38.504Z,99436.33
2018-12-08T09:32:43.890Z,99437.61
2018-12-08T09:33:49.462Z,99434.23
2018-12-08T09:34:54.957Z,99430.37
2018-12-08T09:36:01.562Z,99440.52
2018-12-08T09:37:06.988Z,99438.34
2018-12-08T09:38:12.433Z,99453.21
2018-12-08T09:39:18.191Z,99446.39
2018-12-08T09:40:23.578Z,99440.80
2018-12-08T09:41:29.070Z,99433.97
2018-12-08T09:42:34.547Z,99439.06
2018-12-08T09:43:40.018Z,99455.64
2018-12-08T09:44:45.708Z,99453.49
2018-12-08T09:45:51.278Z,99444.53
2018-12-08T09:46:56.770Z,99443.67
2018-12-08T09:48:02.192Z,99447.03
2018-12-08T09:49:07.679Z,99450.73
2018-12-08T09:50:13.352Z,99446.53
2018-12-08T09:51:18.729Z,99441.93
2018-12-08T09:52:24.152Z,99447.45
2018-12-08T09:53:29.635Z,99452.95
2018-12-08T09:54:35.104Z,99439.75
2018-12-08T09:55:40.611Z,99454.23
2018-12-08T09:56:45.976Z,99448.67
2018-12-08T09:57:51.675Z,99445.58
2018-12-08T09:58:57.098Z,99448.12
2018-12-08T10:00:02.550Z,99445.13
2018-12-08T10:01:07.998Z,99454.78
2018-12-08T10:02:13.448Z,99450.38
2018-12-08T10:03:19.068Z,99450.38
2018-12-08T10:04:24.626Z,99452.05
2018-12-08T10:05:30.121Z,99436.21
2018-12-08T10:06:35.591Z,99443.73
2018-12-08T10:07:40.946Z,99443.64
2018-12-08T10:08:46.775Z,99446.46
2018-12-08T10:09:52.255Z,99442.95
2018-12-08T10:10:57.638Z,99444.17
2018-12-08T10:12:03.123Z,99444.93
2018-12-08T10:13:08.543Z,99441.43
2018-12-08T10:14:14.066Z,99456.95
2018-12-08T10:15:19.530Z,99457.73
2018-12-08T10:16:25.007Z,99452.26
2018-12-08T10:17:30.429Z,99450.58
2018-12-08T10:18:35.973Z,99447.58
2018-12-08T10:19:41.402Z,99452.36
2018-12-08T10:20:47.030Z,99453.13
2018-12-08T10:21:52.468Z,99454.86
2018-12-08T10:22:57.848Z,99448.85
2018-12-08T10:24:03.334Z,99440.05
2018-12-08T10:25:09.188Z,99432.77
2018-12-08T10:26:14.713Z,99434.10
2018-12-08T10:27:20.214Z,99435.55
2018-12-08T10:28:25.607Z,99438.55
2018-12-08T10:29:31.067Z,99439.42
2018-12-08T10:30:36.438Z,99438.57
2018-12-08T10:31:41.959Z,99442.80
2018-12-08T10:32:47.615Z,99436.00
2018-12-08T10:33:52.993Z,99445.25
2018-12-08T10:34:58.472Z,99449.48
2018-12-08T10:36:03.899Z,99440.88
2018-12-08T10:37:09.396Z,99444.20
2018-12-08T10:38:14.968Z,99444.98
2018-12-08T10:39:20.510Z,99439.83
2018-12-08T10:40:26.252Z,99441.83
2018-12-08T10:41:31.719Z,99444.33
2018-12-08T10:42:37.266Z,99445.55
2018-12-08T10:43:42.686Z,99451.38
2018-12-08T10:44:48.159Z,99449.05
2018-12-08T10:45:53.562Z,99452.33
2018-12-08T10:46:59.007Z,99453.42
2018-12-08T10:48:04.596Z,99451.64
2018-12-08T10:49:10.200Z,99453.38
2018-12-08T10:50:15.681Z,99452.09
2018-12-08T10:51:21.074Z,99458.48
2018-12-08T10:52:26.904Z,99460.66
2018-12-08T10:53:32.371Z,99452.43
2018-12-08T10:54:38.027Z,99457.98
2018-12-08T10:55:43.595Z,99455.48
2018-12-08T10:56:49.010Z,99454.20
2018-12-08T10:57:54.528Z,99454.42
2018-12-08T10:59:00.000Z,99454.06
2018-12-08T11:01:38.887Z,99444.99
2018-12-08T11:02:51.160Z,99448.27
2018-12-08T11:03:56.565Z,99443.52
2018-12-08T11:05:02.026Z,99445.52
2018-12-08T11:06:07.504Z,99451.34
2018-12-08T11:07:13.063Z,99453.44
2018-12-08T11:08:18.712Z,99450.78
2018-12-08T11:09:24.273Z,99458.77
2018-12-08T11:10:29.845Z,99451.38
2018-12-08T11:11:35.501Z,99452.28
2018-12-08T11:12:40.907Z,99449.33
2018-12-08T11:13:46.586Z,99450.09
2018-12-08T11:14:52.232Z,99447.99
2018-12-08T11:15:57.743Z,99450.55
2018-12-08T11:17:03.169Z,99449.22
2018-12-08T11:18:08.600Z,99445.84
2018-12-08T11:19:14.315Z,99448.39
2018-12-08T11:20:19.906Z,99455.97
2018-12-08T11:21:25.495Z,99446.72
2018-12-08T11:22:31.099Z,99458.16
2018-12-08T11:23:38.421Z,99454.64
2018-12-08T11:24:44.056Z,99456.88
2018-12-08T11:25:49.567Z,99448.77
2018-12-08T11:26:55.062Z,99455.70
2018-12-08T11:28:00.415Z,99456.53
2018-12-08T11:29:05.879Z,99451.00
2018-12-08T11:30:11.223Z,99453.70
2018-12-08T11:31:16.643Z,99451.50
2018-12-08T11:32:22.043Z,99461.21
2018-12-08T11:33:27.532Z,99456.61
2018-12-08T11:34:32.937Z,99459.53
2018-12-08T11:35:38.402Z,99453.15
2018-12-08T11:36:49.508Z,99452.83
2018-12-08T11:37:51.372Z,99454.53
2018-12-08T11:38:56.843Z,99451.25
2018-12-08T11:40:02.359Z,99460.64
2018-12-08T11:41:07.819Z,99453.39
2018-12-08T11:42:13.306Z,99455.03
2018-12-08T11:43:18.811Z,99446.55
2018-12-08T11:44:24.483Z,99453.81
2018-12-08T11:45:30.293Z,99454.66
2018-12-08T11:46:35.919Z,99451.20
2018-12-08T11:47:42.066Z,99455.44
2018-12-08T11:48:47.471Z,99448.60
2018-12-08T11:49:53.060Z,99454.98
2018-12-08T11:50:58.539Z,99455.34
2018-12-08T11:52:04.197Z,99454.48
2018-12-08T11:53:09.616Z,99447.99
2018-12-08T11:54:15.033Z,99452.09
2018-12-08T11:55:20.435Z,99448.95
2018-12-08T11:56:25.859Z,99450.65
2018-12-08T11:57:31.401Z,99450.28
2018-12-08T11:58:36.883Z,99456.72
2018-12-08T11:59:42.439Z,99455.38
2018-12-08T12:00:47.857Z,99456.21
2018-12-08T12:01:53.349Z,99451.83
2018-12-08T12:02:58.807Z,99449.67
2018-12-08T12:04:04.255Z,99454.59
2018-12-08T12:05:10.265Z,99446.42
2018-12-08T12:06:15.842Z,99445.16
2018-12-08T12:07:21.539Z,99456.13
2018-12-08T12:08:27.210Z,99448.83
2018-12-08T12:09:32.622Z,99449.55
2018-12-08T12:10:38.062Z,99452.52
2018-12-08T12:11:43.512Z,99444.80
2018-12-08T12:12:48.959Z,99447.76
2018-12-08T12:13:54.412Z,99454.52
2018-12-08T12:14:59.905Z,99444.44
2018-12-08T12:16:05.504Z,99451.70
2018-12-08T12:17:10.896Z,99451.64
2018-12-08T12:18:16.280Z,99446.08
2018-12-08T12:19:21.677Z,99454.97
2018-12-08T12:20:27.091Z,99445.71
2018-12-08T12:21:32.490Z,99449.55
2018-12-08T12:22:38.222Z,99453.69
2018-12-08T12:23:43.826Z,99447.70
2018-12-08T12:24:49.296Z,99454.91
2018-12-08T12:25:54.695Z,99453.84
2018-12-08T12:27:00.407Z,99453.02
2018-12-08T12:28:06.156Z,99454.75
2018-12-08T12:29:11.515Z,99454.06
2018-12-08T12:30:17.312Z,99454.67
2018-12-08T12:31:22.806Z,99456.03
2018-12-08T12:32:28.328Z,99457.36
2018-12-08T12:33:33.744Z,99456.91
2018-12-08T12:34:39.150Z,99455.17
2018-12-08T12:35:44.604Z,99462.33
2018-12-08T12:36:50.082Z,99446.08
2018-12-08T12:37:55.624Z,99449.80
2018-12-08T12:39:01.000Z,99448.39
2018-12-08T12:40:07.091Z,99443.63
2018-12-08T12:41:12.559Z,99453.34
2018-12-08T12:42:18.015Z,99449.00
2018-12-08T12:43:23.411Z,99445.83
2018-12-08T12:44:28.987Z,99454.88
2018-12-08T12:45:34.679Z,99450.53
2018-12-08T12:46:40.144Z,99446.75
2018-12-08T12:47:45.663Z,99445.83
2018-12-08T12:48:51.094Z,99445.06
2018-12-08T12:49:56.666Z,99456.55
2018-12-08T12:51:02.038Z,99453.14
2018-12-08T12:52:07.487Z,99461.97
2018-12-08T12:53:12.960Z,99452.58
2018-12-08T12:54:18.382Z,99452.52
2018-12-08T12:55:23.890Z,99466.06